createdAt,value
2018-11-21T00:01:18.348Z,2.30
2018-11-21T00:04:06.224Z,2.30
2018-11-21T00:06:53.886Z,2.30
2018-11-21T00:09:41.637Z,2.30
2018-11-21T00:12:29.367Z,2.30
2018-11-21T00:15:17.083Z,2.40
2018-11-21T00:18:04.751Z,2.30
2018-11-21T00:20:53.265Z,2.40
2018-11-21T00:23:41.769Z,2.30
2018-11-21T00:26:29.470Z,2.30
2018-11-21T00:29:17.247Z,2.30
2018-11-21T00:32:04.934Z,2.20
2018-11-21T00:37:47.556Z,2.20
2018-11-21T00:40:35.281Z,2.10
2018-11-21T00:46:31.878Z,2.10
2018-11-21T00:49:19.680Z,2.00
2018-11-21T00:52:07.346Z,2.00
2018-11-21T00:54:55.970Z,1.90
2018-11-21T00:57:43.637Z,2.00
2018-11-21T01:00:31.365Z,1.90
2018-11-21T01:03:19.102Z,1.90
2018-11-21T01:06:06.800Z,1.90
2018-11-21T01:08:54.544Z,1.90
2018-11-21T01:11:42.230Z,1.90
2018-11-21T01:14:29.916Z,1.90
2018-11-21T01:17:17.870Z,2.00
2018-11-21T01:20:06.271Z,2.00
2018-11-21T01:22:54.044Z,2.00
2018-11-21T01:25:42.295Z,2.00
2018-11-21T01:28:10.586Z,2.00
2018-11-21T01:30:38.844Z,2.00
2018-11-21T01:33:09.745Z,2.00
2018-11-21T01:35:35.447Z,2.00
2018-11-21T01:38:23.146Z,2.00
2018-11-21T01:40:51.418Z,2.00
2018-11-21T01:43:39.105Z,2.00
2018-11-21T01:46:26.812Z,1.90
2018-11-21T01:49:14.485Z,2.00
2018-11-21T01:52:02.218Z,2.00
2018-11-21T01:54:50.094Z,2.00
2018-11-21T01:57:37.737Z,2.00
2018-11-21T02:00:25.431Z,2.00
2018-11-21T02:03:13.079Z,2.00
2018-11-21T02:06:00.867Z,2.00
2018-11-21T02:08:48.539Z,2.00
2018-11-21T02:11:36.326Z,2.00
2018-11-21T02:14:23.945Z,2.00
2018-11-21T02:17:11.688Z,2.10
2018-11-21T02:19:59.438Z,2.10
2018-11-21T02:22:47.569Z,2.10
2018-11-21T02:25:35.297Z,2.10
2018-11-21T02:28:22.973Z,2.20
2018-11-21T02:34:17.892Z,2.20
2018-11-21T02:37:05.650Z,2.20
2018-11-21T02:39:53.355Z,2.20
2018-11-21T02:42:41.062Z,2.20
2018-11-21T02:45:28.849Z,2.20
2018-11-21T02:48:16.562Z,2.20
2018-11-21T02:51:04.695Z,2.30
2018-11-21T02:53:52.344Z,2.40
2018-11-21T02:56:59.469Z,2.40
2018-11-21T02:59:47.450Z,2.50
2018-11-21T03:02:35.133Z,2.50
2018-11-21T03:05:22.900Z,2.60
2018-11-21T03:08:10.933Z,2.60
2018-11-21T03:10:58.602Z,2.60
2018-11-21T03:13:46.321Z,2.60
2018-11-21T03:16:34.967Z,2.60
2018-11-21T03:19:22.650Z,2.70
2018-11-21T03:22:10.482Z,2.60
2018-11-21T03:24:58.256Z,2.60
2018-11-21T03:27:46.015Z,2.60
2018-11-21T03:30:33.797Z,2.60
2018-11-21T03:33:21.557Z,2.60
2018-11-21T03:36:09.267Z,2.60
2018-11-21T03:38:56.988Z,2.60
2018-11-21T03:41:44.946Z,2.50
2018-11-21T03:44:32.702Z,2.50
2018-11-21T03:47:20.585Z,2.50
2018-11-21T03:50:08.836Z,2.40
2018-11-21T03:52:56.546Z,2.40
2018-11-21T03:55:44.331Z,2.50
2018-11-21T03:58:32.038Z,2.40
2018-11-21T04:01:19.826Z,2.40
2018-11-21T04:04:08.388Z,2.30
2018-11-21T04:06:56.103Z,2.30
2018-11-21T04:09:43.926Z,2.30
2018-11-21T04:12:31.695Z,2.30
2018-11-21T04:15:19.532Z,2.30
2018-11-21T04:18:07.180Z,2.30
2018-11-21T04:20:54.967Z,2.30
2018-11-21T04:23:42.696Z,2.30
2018-11-21T04:26:30.409Z,2.30
2018-11-21T04:29:18.182Z,2.30
2018-11-21T04:32:05.916Z,2.40
2018-11-21T04:34:53.892Z,2.40
2018-11-21T04:37:41.696Z,2.40
2018-11-21T04:40:29.426Z,2.40
2018-11-21T04:43:17.225Z,2.50
2018-11-21T04:46:05.081Z,2.50
2018-11-21T04:48:52.810Z,2.50
2018-11-21T04:51:40.772Z,2.50
2018-11-21T04:54:28.539Z,2.60
2018-11-21T04:57:16.245Z,2.60
2018-11-21T05:00:04.887Z,2.60
2018-11-21T05:02:52.550Z,2.60
2018-11-21T05:05:40.228Z,2.60
2018-11-21T05:08:28.177Z,2.60
2018-11-21T05:11:15.859Z,2.50
2018-11-21T05:14:03.773Z,2.50
2018-11-21T05:16:51.465Z,2.50
2018-11-21T05:19:39.153Z,2.50
2018-11-21T05:22:26.856Z,2.50
2018-11-21T05:25:14.857Z,2.50
2018-11-21T05:28:02.342Z,2.50
2018-11-21T05:30:50.050Z,2.40
2018-11-21T05:33:37.753Z,2.40
2018-11-21T05:36:25.737Z,2.40
2018-11-21T05:39:13.583Z,2.40
2018-11-21T05:42:01.290Z,2.30
2018-11-21T05:44:49.124Z,2.40
2018-11-21T05:47:36.966Z,2.40
2018-11-21T05:50:24.632Z,2.40
2018-11-21T05:53:12.448Z,2.40
2018-11-21T05:56:00.115Z,2.30
2018-11-21T06:01:54.917Z,2.30
2018-11-21T06:04:42.643Z,2.30
2018-11-21T06:07:30.311Z,2.30
2018-11-21T06:10:17.998Z,2.30
2018-11-21T06:13:05.676Z,2.30
2018-11-21T06:15:53.328Z,2.30
2018-11-21T06:18:41.019Z,2.30
2018-11-21T06:21:28.717Z,2.30
2018-11-21T06:24:16.513Z,2.30
2018-11-21T06:27:04.368Z,2.30
2018-11-21T06:29:52.177Z,2.30
2018-11-21T06:32:40.009Z,2.30
2018-11-21T06:35:27.687Z,2.30
2018-11-21T06:38:15.813Z,2.30
2018-11-21T06:41:03.564Z,2.30
2018-11-21T06:43:52.053Z,2.30
2018-11-21T06:46:39.875Z,2.30
2018-11-21T06:49:27.621Z,2.30
2018-11-21T06:52:21.941Z,2.30
2018-11-21T06:55:03.328Z,2.30
2018-11-21T06:57:51.152Z,2.30
2018-11-21T07:00:38.849Z,2.30
2018-11-21T07:03:26.525Z,2.30
2018-11-21T07:06:14.247Z,2.30
2018-11-21T07:09:01.951Z,2.40
2018-11-21T07:11:49.687Z,2.40
2018-11-21T07:14:37.404Z,2.40
2018-11-21T07:17:25.153Z,2.40
2018-11-21T07:20:13.523Z,2.40
2018-11-21T07:23:01.903Z,2.40
2018-11-21T07:25:50.547Z,2.40
2018-11-21T07:28:38.250Z,2.50
2018-11-21T07:31:25.905Z,2.40
2018-11-21T07:34:13.599Z,2.40
2018-11-21T07:37:01.271Z,2.50
2018-11-21T07:39:48.948Z,2.50
2018-11-21T07:42:17.214Z,2.50
2018-11-21T07:45:05.754Z,2.50
2018-11-21T07:47:34.071Z,2.50
2018-11-21T07:50:22.142Z,2.60
2018-11-21T07:52:50.400Z,2.60
2018-11-21T07:55:38.110Z,2.70
2018-11-21T07:58:27.572Z,2.70
2018-11-21T08:01:34.420Z,2.70
2018-11-21T08:07:43.603Z,2.90
2018-11-21T08:10:50.457Z,2.90
2018-11-21T08:13:57.499Z,2.90
2018-11-21T08:17:04.485Z,2.90
2018-11-21T08:20:11.336Z,3.00
2018-11-21T08:23:18.368Z,3.00
2018-11-21T08:26:14.984Z,3.00
2018-11-21T08:29:03.104Z,3.10
2018-11-21T08:31:50.853Z,3.20
2018-11-21T08:34:38.606Z,3.20
2018-11-21T08:37:26.262Z,3.20
2018-11-21T08:40:14.020Z,3.30
2018-11-21T08:43:01.702Z,3.30
2018-11-21T08:45:42.144Z,3.40
2018-11-21T08:48:23.158Z,3.40
2018-11-21T08:51:03.843Z,3.50
2018-11-21T08:59:24.544Z,3.50
2018-11-21T09:02:05.803Z,3.60
2018-11-21T09:04:46.623Z,3.60
2018-11-21T09:07:27.094Z,3.70
2018-11-21T09:10:07.611Z,3.70
2018-11-21T09:12:48.494Z,3.80
2018-11-21T09:15:28.723Z,3.80
2018-11-21T09:18:09.225Z,3.80
2018-11-21T09:20:49.761Z,3.90
2018-11-21T09:23:30.863Z,3.90
2018-11-21T09:26:11.940Z,4.00
2018-11-21T09:28:52.406Z,4.10
2018-11-21T09:31:33.567Z,4.20
2018-11-21T09:34:14.324Z,4.30
2018-11-21T09:36:55.136Z,4.40
2018-11-21T09:39:36.212Z,4.40
2018-11-21T09:42:17.338Z,4.40
2018-11-21T09:44:57.953Z,4.40
2018-11-21T09:47:40.026Z,4.40
2018-11-21T09:50:38.784Z,4.40
2018-11-21T09:53:19.090Z,4.40
2018-11-21T09:56:00.156Z,4.40
2018-11-21T09:58:40.638Z,4.50
2018-11-21T10:04:34.546Z,4.50
2018-11-21T10:07:14.992Z,4.60
2018-11-21T10:09:55.811Z,4.70
2018-11-21T10:12:36.862Z,4.70
2018-11-21T10:15:05.799Z,4.60
2018-11-21T10:17:34.322Z,4.60
2018-11-21T10:20:02.657Z,4.60
2018-11-21T10:22:50.496Z,4.60
2018-11-21T10:25:38.234Z,4.60
2018-11-21T10:28:26.799Z,4.50
2018-11-21T10:31:17.683Z,4.50
2018-11-21T10:34:05.418Z,4.40
2018-11-21T10:36:53.213Z,4.50
2018-11-21T10:39:43.603Z,4.60
2018-11-21T10:42:31.279Z,4.60
2018-11-21T10:45:19.081Z,4.60
2018-11-21T10:48:07.080Z,4.70
2018-11-21T10:50:54.809Z,4.80
2018-11-21T10:53:42.508Z,4.90
2018-11-21T10:59:23.553Z,5.30
2018-11-21T11:02:30.440Z,5.40
2018-11-21T11:05:37.276Z,5.40
2018-11-21T11:08:44.170Z,5.40
2018-11-21T11:11:51.050Z,5.40
2018-11-21T11:14:57.947Z,5.30
2018-11-21T11:18:04.804Z,5.20
2018-11-21T11:21:11.786Z,5.20
2018-11-21T11:24:18.630Z,5.20
2018-11-21T11:27:25.451Z,5.30
2018-11-21T11:30:27.377Z,5.30
2018-11-21T11:33:34.276Z,5.30
2018-11-21T11:36:41.163Z,5.40
2018-11-21T11:39:39.820Z,5.50
2018-11-21T11:43:06.129Z,5.50
2018-11-21T11:46:08.033Z,5.60
2018-11-21T11:49:14.904Z,5.40
2018-11-21T11:52:21.896Z,5.40
2018-11-21T11:55:28.840Z,5.20
2018-11-21T11:58:35.737Z,5.30
2018-11-21T12:01:42.580Z,5.30
2018-11-21T12:04:49.479Z,5.40
2018-11-21T12:07:56.334Z,5.30
2018-11-21T12:11:03.446Z,5.40
2018-11-21T12:14:10.324Z,5.50
2018-11-21T12:17:17.174Z,5.40
2018-11-21T12:20:18.634Z,5.50
2018-11-21T12:23:25.530Z,5.40
2018-11-21T12:26:32.515Z,5.50
2018-11-21T12:29:41.882Z,5.50
2018-11-21T12:32:46.304Z,5.60
2018-11-21T12:35:53.175Z,5.40
2018-11-21T12:39:00.102Z,5.40
2018-11-21T12:42:07.035Z,5.30
2018-11-21T12:44:54.482Z,5.30
2018-11-21T12:47:48.893Z,5.30
2018-11-21T12:50:55.814Z,5.30
2018-11-21T12:54:02.697Z,5.30
2018-11-21T12:57:09.544Z,5.30
2018-11-21T13:00:16.402Z,5.40
2018-11-21T13:03:09.146Z,5.40
2018-11-21T13:06:16.771Z,5.50
2018-11-21T13:09:26.113Z,5.50
2018-11-21T13:12:33.033Z,5.40
2018-11-21T13:15:43.492Z,5.40
2018-11-21T13:18:46.810Z,5.40
2018-11-21T13:21:53.714Z,5.40
2018-11-21T13:25:00.606Z,5.30
2018-11-21T13:28:07.683Z,5.30
2018-11-21T13:31:14.591Z,5.30
2018-11-21T13:34:21.473Z,5.20
2018-11-21T13:37:20.455Z,5.30
2018-11-21T13:40:27.988Z,5.30
2018-11-21T13:43:34.848Z,5.30
2018-11-21T13:46:41.779Z,5.20
2018-11-21T13:49:48.632Z,5.20
2018-11-21T13:52:48.973Z,5.10
2018-11-21T13:55:36.708Z,5.20
2018-11-21T13:58:06.465Z,5.20
2018-11-21T14:00:35.666Z,5.20
2018-11-21T14:03:04.006Z,5.20
2018-11-21T14:05:32.254Z,5.20
2018-11-21T14:08:00.560Z,5.20
2018-11-21T14:10:29.255Z,5.10
2018-11-21T14:12:57.833Z,5.00
2018-11-21T14:15:26.231Z,5.00
2018-11-21T14:17:54.494Z,5.00
2018-11-21T14:20:22.720Z,5.10
2018-11-21T14:22:50.993Z,5.10
2018-11-21T14:25:19.589Z,5.10
2018-11-21T14:27:47.908Z,5.10
2018-11-21T14:30:16.836Z,5.10
2018-11-21T14:32:45.306Z,5.10
2018-11-21T14:35:15.045Z,5.10
2018-11-21T14:37:44.409Z,5.10
2018-11-21T14:40:15.175Z,5.10
2018-11-21T14:42:43.466Z,5.10
2018-11-21T14:45:16.347Z,5.10
2018-11-21T14:47:46.313Z,5.00
2018-11-21T14:50:28.369Z,4.90
2018-11-21T14:52:56.661Z,4.90
2018-11-21T14:55:24.959Z,4.80
2018-11-21T14:57:53.153Z,4.70
2018-11-21T15:00:22.904Z,4.70
2018-11-21T15:02:50.973Z,4.70
2018-11-21T15:05:19.265Z,4.60
2018-11-21T15:07:48.017Z,4.60
2018-11-21T15:10:16.427Z,4.60
2018-11-21T15:12:44.769Z,4.50
2018-11-21T15:15:15.366Z,4.50
2018-11-21T15:17:43.761Z,4.40
2018-11-21T15:20:17.369Z,4.40
2018-11-21T15:22:47.579Z,4.40
2018-11-21T15:25:17.779Z,4.40
2018-11-21T15:27:46.255Z,4.40
2018-11-21T15:30:18.224Z,4.30
2018-11-21T15:32:49.044Z,4.30
2018-11-21T15:35:17.715Z,4.30
2018-11-21T15:37:46.454Z,4.30
2018-11-21T15:40:16.165Z,4.30
2018-11-21T15:42:44.455Z,4.30
2018-11-21T15:45:15.096Z,4.30
2018-11-21T15:47:45.127Z,4.20
2018-11-21T15:50:14.618Z,4.20
2018-11-21T15:52:43.431Z,4.20
2018-11-21T15:55:13.168Z,4.20
2018-11-21T15:57:41.436Z,4.20
2018-11-21T16:00:17.864Z,4.30
2018-11-21T16:02:47.105Z,4.30
2018-11-21T16:05:15.966Z,4.30
2018-11-21T16:07:44.240Z,4.30
2018-11-21T16:10:18.512Z,4.30
2018-11-21T16:12:45.567Z,4.30
2018-11-21T16:15:16.617Z,4.30
2018-11-21T16:17:44.880Z,4.30
2018-11-21T16:20:14.499Z,4.30
2018-11-21T16:22:42.837Z,4.30
2018-11-21T16:25:12.908Z,4.30
2018-11-21T16:27:41.819Z,4.20
2018-11-21T16:30:15.328Z,4.20
2018-11-21T16:32:43.873Z,4.30
2018-11-21T16:35:12.586Z,4.30
2018-11-21T16:37:41.346Z,4.30
2018-11-21T16:40:15.807Z,4.30
2018-11-21T16:42:44.124Z,4.30
2018-11-21T16:45:14.460Z,4.30
2018-11-21T16:47:42.830Z,4.30
2018-11-21T16:50:13.490Z,4.30
2018-11-21T16:52:41.819Z,4.20
2018-11-21T16:55:11.962Z,4.20
2018-11-21T16:57:40.280Z,4.10
2018-11-21T17:00:14.078Z,4.10
2018-11-21T17:02:42.340Z,4.10
2018-11-21T17:05:12.339Z,4.10
2018-11-21T17:07:41.033Z,4.20
2018-11-21T17:10:11.356Z,4.20
2018-11-21T17:12:39.835Z,4.10
2018-11-21T17:15:10.258Z,4.10
2018-11-21T17:17:38.784Z,4.10
2018-11-21T17:20:13.917Z,4.10
2018-11-21T17:22:42.150Z,4.10
2018-11-21T17:25:13.107Z,4.10
2018-11-21T17:27:42.232Z,4.20
2018-11-21T17:30:12.197Z,4.10
2018-11-21T17:32:40.580Z,4.10
2018-11-21T17:35:10.234Z,4.20
2018-11-21T17:37:38.594Z,4.10
2018-11-21T17:40:12.683Z,4.10
2018-11-21T17:42:41.121Z,4.10
2018-11-21T17:45:10.495Z,4.10
2018-11-21T17:47:38.823Z,4.10
2018-11-21T17:50:12.894Z,4.10
2018-11-21T17:52:41.196Z,4.10
2018-11-21T17:55:11.771Z,4.10
2018-11-21T17:57:40.180Z,4.00
2018-11-21T18:00:13.564Z,4.00
2018-11-21T18:02:42.041Z,3.80
2018-11-21T18:05:11.428Z,3.80
2018-11-21T18:07:39.716Z,3.70
2018-11-21T18:10:10.405Z,3.70
2018-11-21T18:12:43.669Z,3.70
2018-11-21T18:15:18.760Z,3.60
2018-11-21T18:17:48.068Z,3.50
2018-11-21T18:20:46.855Z,3.50
2018-11-21T18:23:19.747Z,3.50
2018-11-21T18:25:48.218Z,3.30
2018-11-21T18:28:16.664Z,3.30
2018-11-21T18:30:44.977Z,3.30
2018-11-21T18:33:13.749Z,3.20
2018-11-21T18:35:42.000Z,3.20
2018-11-21T18:38:11.370Z,3.10
2018-11-21T18:40:39.767Z,3.10
2018-11-21T18:43:08.305Z,3.10
2018-11-21T18:45:38.609Z,3.10
2018-11-21T18:48:07.230Z,3.10
2018-11-21T18:50:35.512Z,3.10
2018-11-21T18:53:05.341Z,3.00
2018-11-21T18:55:36.302Z,3.00
2018-11-21T18:58:14.520Z,3.00
2018-11-21T19:00:44.800Z,3.00
2018-11-21T19:03:13.339Z,3.00
2018-11-21T19:05:41.920Z,3.00
2018-11-21T19:08:10.491Z,3.00
2018-11-21T19:10:39.016Z,3.00
2018-11-21T19:13:07.673Z,2.90
2018-11-21T19:15:36.189Z,2.90
2018-11-21T19:18:04.758Z,2.90
2018-11-21T19:20:33.339Z,3.00
2018-11-21T19:23:01.904Z,3.00
2018-11-21T19:25:31.239Z,3.00
2018-11-21T19:28:10.634Z,3.10
2018-11-21T19:30:39.203Z,3.20
2018-11-21T19:33:07.772Z,3.20
2018-11-21T19:35:36.333Z,3.30
2018-11-21T19:38:06.010Z,3.30
2018-11-21T19:40:34.613Z,3.40
2018-11-21T19:43:03.200Z,3.40
2018-11-21T19:45:31.897Z,3.50
2018-11-21T19:48:04.686Z,3.50
2018-11-21T19:50:34.216Z,3.50
2018-11-21T19:53:03.041Z,3.50
2018-11-21T19:55:32.875Z,3.50
2018-11-21T19:58:02.355Z,3.50
2018-11-21T20:00:32.530Z,3.50
2018-11-21T20:03:01.592Z,3.50
2018-11-21T20:05:32.391Z,3.50
2018-11-21T20:08:01.031Z,3.60
2018-11-21T20:10:29.578Z,3.60
2018-11-21T20:12:58.129Z,3.60
2018-11-21T20:15:27.770Z,3.60
2018-11-21T20:17:58.225Z,3.60
2018-11-21T20:20:26.917Z,3.60
2018-11-21T20:22:55.246Z,3.60
2018-11-21T20:25:24.794Z,3.60
2018-11-21T20:27:53.262Z,3.60
2018-11-21T20:30:29.287Z,3.70
2018-11-21T20:32:57.554Z,3.70
2018-11-21T20:35:29.034Z,3.70
2018-11-21T20:37:57.354Z,3.70
2018-11-21T20:40:27.635Z,3.70
2018-11-21T20:42:56.084Z,3.60
2018-11-21T20:45:26.070Z,3.70
2018-11-21T20:47:55.119Z,3.70
2018-11-21T20:50:23.454Z,3.70
2018-11-21T20:52:51.734Z,3.70
2018-11-21T20:55:21.852Z,3.70
2018-11-21T20:57:50.135Z,3.70
2018-11-21T21:00:23.640Z,3.70
2018-11-21T21:02:51.963Z,3.70
2018-11-21T21:05:21.740Z,3.70
2018-11-21T21:07:50.025Z,3.70
2018-11-21T21:10:22.792Z,3.60
2018-11-21T21:12:51.070Z,3.60
2018-11-21T21:15:19.321Z,3.60
2018-11-21T21:17:48.332Z,3.60
2018-11-21T21:20:18.100Z,3.70
2018-11-21T21:22:47.362Z,3.60
2018-11-21T21:25:17.525Z,3.60
2018-11-21T21:27:45.923Z,3.60
2018-11-21T21:30:16.126Z,3.60
2018-11-21T21:32:45.203Z,3.70
2018-11-21T21:35:14.140Z,3.60
2018-11-21T21:37:42.902Z,3.60
2018-11-21T21:40:13.307Z,3.50
2018-11-21T21:42:41.954Z,3.60
2018-11-21T21:45:12.420Z,3.50
2018-11-21T21:47:41.680Z,3.50
2018-11-21T21:50:10.261Z,3.60
2018-11-21T21:52:38.538Z,3.60
2018-11-21T21:55:08.117Z,3.60
2018-11-21T21:57:36.479Z,3.60
2018-11-21T22:00:08.461Z,3.70
2018-11-21T22:02:36.796Z,3.60
2018-11-21T22:05:06.857Z,3.60
2018-11-21T22:07:35.200Z,3.60
2018-11-21T22:10:03.440Z,3.60
2018-11-21T22:12:31.729Z,3.60
2018-11-21T22:15:00.071Z,3.60
2018-11-21T22:17:28.773Z,3.60
2018-11-21T22:19:57.243Z,3.60
